My Meet Scores
Isabella Whitehouse, Patti Dunne's School Of Gymnastics - MyMeetScores.com
Top100 | Top Teams | Upcoming Meets | Completed Meets | Latest | Add Scores | Help| Support | Bookmark and Share

Isabella Whitehouse, Patti Dunne's School Of Gymnastics
Personal Bests
LevelVault BarsBeamFloorAA
39.5259.550 9.3509.30037.450
49.1759.400 9.3009.47536.875
58.6259.325 7.9508.80034.700
Meet Scores
Date Meet Team Session Level Division Vault Bars Beam Floor AA
2019-12-06 Rhode Island Invitational Patti Dunne%27s School Of Gymnastics WF4 5 senior 8.625 9 9.325 1 7.950 23 8.800 4 34.700 3
2019-02-08 Team Challenge 2019 Patti Dunne's School Of Gymnastics R5 4 Sr B 9.175 1 9.125 1 8.475 6 9.450 1 36.225 1
2019-02-01 State Level 4&5 Patti Dunne's School Of Gymnastics 2 4 11D 9.000 14T 9.225 3 8.500 47T 9.150 14T 35.875 12T
2019-01-26 Manhattan Classic Patti Dunne's School Of Gymnastics 4CP 4 Junior B 9.000 3 9.400 3 9.250 4 9.000 8T 36.650 3
2019-01-18 DGS Northeast Invite Patti Dunne's School Of Gymnastics 6A 4 Jr A 8.650 2T 8.750 2 8.400 6 9.200 1 35.000 3
2019-01-10 Little Boston Invitational Patti Dunne's School Of Gymnastics C10 4 SR 9.000 1 8.750 3 9.000 6 8.650 1 35.400 2
2018-12-14 Shen's New England Classic Patti Dunne's School Of Gymnastics 08 4 JR B 8.800 1T 8.600 2 9.275 1 9.075 1 35.750 1
2018-12-08 American Gymnastics Invitational Patti Dunne's School Of Gymnastics 5 4 Sr B 9.000 1T 9.100 1 9.300 2T 9.475 2 36.875 1
2018-11-17 2018 Connecticut Judge's Cup Patti Dunne's School Of Gymnastics 6 4 11 yrs. 8.650 30T 9.350 1 8.700 14T 9.400 4T 36.100 2
2018-02-16 Chelsea Piers Winter Challenge Patti Dunne's School Of Gymnastics F-4 4 Senior 8.600 14 9.375 4T 8.850 7T 9.200 2 36.025 5
2018-02-09 Team Challenge 2018 Patti Dunne's School Of Gymnastics 08B 4 Sr B 9.025 10T 9.125 3T 9.075 5 9.300 2 36.525 3
2018-02-03 Level 4 & 5 States Patti Dunne's School Of Gymnastics 3 4 10 B 8.700 27 8.100 32T 9.175 23 9.150 6 35.125 22T
2018-01-19 Kinetic Kids Invitational Patti Dunne's School Of Gymnastics 2 4 Sr A 9.000 6T 9.300 6 9.250 5T 8.950 8 36.500 7
2018-01-12 DGS Invitational Patti Dunne's School Of Gymnastics 5B 4 10 yrs. 8.025 16 8.875 4 8.275 16 8.550 13T 33.725 10
2017-11-30 Rhode Island Invitational Patti Dunne's School Of Gymnastics BF1 4 Junior 8.400 8 8.750 7 8.175 7 9.025 5 34.350 7
2017-03-25 2017 Connecticut Level 3 State Cup Patti Dunne's School Of Gymnastics 6 3 N/A 9.450 2T 9.250 4 9.050 9T 9.175 11 36.925 3
2017-02-18 Chelsea Piers Winter Challenge Patti Dunne's School Of Gymnastics F-4 3 Jr B 9.350 3T 9.450 4T 9.350 10T 9.300 2 37.450 2
2017-02-10 Team Challenge 2017 Patti Dunne's School Of Gymnastics 10B 3 Senior 9.400 1T 9.550 1 9.225 4 9.150 7T 37.325 1
2017-01-27 24th Annual American Invitational Patti Dunne's School Of Gymnastics 6A 3 Senior 9.525 3 9.075 11 8.850 9T 9.300 1 36.750 2
2017-01-13 Northeast Invitational Patti Dunne's School Of Gymnastics 9 3 9 yrs. 9.200 3T 8.550 12 9.250 5T 9.250 1 36.250 3
2016-12-02 Rhode Island Invitational Patti Dunne's School Of Gymnastics WS4 3 Senior 9.200 5 9.100 5 8.300 6 8.900 7 35.500 6
2016-04-02 2016 Connecticut Level 6 States & Level 3 State Cup Patti Dunne's School Of Gymnastics 7 3 N/A 9.000 34T 8.550 24T 8.475 23 8.725 41 34.750 28
2016-02-13 Chelsea Piers Winter Challenge Patti Dunne's School Of Gymnastics F5 3 JR A 7.850 18 8.700 14T 8.175 14 8.550 15 33.275 16
2016-01-22 Sand Dollar/Whitlow Invitational Patti Dunne's School Of Gymnastics A03 3 Jr C 8.550 13 8.075 10 7.850 13 8.475 12 32.950 13
2016-01-15 DGS Invitational Patti Dunne's School Of Gymnastics A11 3 8 yrs. 8.500 21T 7.900 19 9.000 10 8.300 15T 33.700 20
2015-12-04 Rhode Island Invitational Patti Dunne's School Of Gymnastics WS3 3 Intermedia 8.750 9 7.300 11 8.725 4 7.500 12 32.275 11
2015-11-21 Pilgrim Invitational Patti Dunne's School Of Gymnastics 6 3 Child 9.200 6 6.400 9 8.300 7 7.800 9 31.700 10
Get your scores on
a t-shirt, pin, or hoodie

Order by December 13

www.lazysuits.com